Terminal Aerodrome Forecast
Issued by NWS Upton, NY

Home | Current Version | Previous Version | Text Only | Print | Product List | Glossary On
Versions: 1 2 3 4 5 6 7 8 9 10 11 12 13 14 15 16 17 18 19 20 21 22 23 24 25 26 27 28 29 30 31 32 33 34 35 36 37 38 39 40 41 42 43 44 45 46 47 48 49 50
000
FTUS41 KOKX 181228 AAA
TAFLGA
TAF AMD
KLGA 181228Z 1812/1918 05006KT 4SM -SN BR OVC005
     FM181500 05005KT P6SM OVC007
     FM181700 07005KT P6SM SCT010 BKN020
     FM182200 27007KT P6SM SCT025 SCT250
     FM190500 34007KT P6SM BKN250
     FM191500 06009KT P6SM BKN150=

USA.gov is the U.S. government's official web portal to all federal, state and local government web resources and services.